createdAt,value
2019-01-31T00:02:23.614Z,22.87
2019-01-31T00:05:00.793Z,23.03
2019-01-31T00:07:41.299Z,24.70
2019-01-31T00:10:21.926Z,23.27
2019-01-31T00:13:14.364Z,24.57
2019-01-31T00:16:09.866Z,23.93
2019-01-31T00:18:41.536Z,22.27
2019-01-31T00:21:18.176Z,24.17
2019-01-31T00:23:55.402Z,22.17
2019-01-31T00:26:38.941Z,24.23
2019-01-31T00:29:19.532Z,22.30
2019-01-31T00:32:06.178Z,23.33
2019-01-31T00:34:40.354Z,21.73
2019-01-31T00:37:14.877Z,22.53
2019-01-31T00:39:58.148Z,21.30
2019-01-31T00:42:29.701Z,21.80
2019-01-31T00:45:19.171Z,23.80
2019-01-31T00:47:56.546Z,21.60
2019-01-31T00:50:45.753Z,21.53
2019-01-31T00:53:17.390Z,22.93
2019-01-31T00:55:48.939Z,21.70
2019-01-31T00:58:32.321Z,22.63
2019-01-31T01:01:09.583Z,22.57
2019-01-31T01:03:43.796Z,23.80
2019-01-31T01:06:30.105Z,23.03
2019-01-31T01:09:19.694Z,22.23
2019-01-31T01:11:54.155Z,24.17
2019-01-31T01:14:34.513Z,22.93
2019-01-31T01:17:06.056Z,23.40
2019-01-31T01:19:40.079Z,24.17
2019-01-31T01:22:19.828Z,21.33
2019-01-31T01:25:07.665Z,22.23
2019-01-31T01:27:39.200Z,20.87
2019-01-31T01:30:19.809Z,22.70
2019-01-31T01:33:03.254Z,21.70
2019-01-31T01:35:59.179Z,21.03
2019-01-31T01:38:49.105Z,21.73
2019-01-31T01:41:29.438Z,20.10
2019-01-31T01:44:22.539Z,24.77
2019-01-31T01:47:11.996Z,22.47
2019-01-31T01:49:43.559Z,24.90
2019-01-31T01:52:15.072Z,25.80
2019-01-31T01:54:49.422Z,24.17
2019-01-31T01:57:29.879Z,25.40
2019-01-31T02:00:22.808Z,24.43
2019-01-31T02:03:02.657Z,24.93
2019-01-31T02:05:37.386Z,20.60
2019-01-31T02:08:11.548Z,19.53
2019-01-31T02:10:43.080Z,20.13
2019-01-31T02:13:14.597Z,19.20
2019-01-31T02:16:07.049Z,20.90
2019-01-31T02:18:47.272Z,19.53
2019-01-31T02:21:33.803Z,19.07
2019-01-31T02:24:11.405Z,19.33
2019-01-31T02:27:00.845Z,20.67
2019-01-31T02:29:44.327Z,19.97
2019-01-31T02:32:24.757Z,20.00
2019-01-31T02:35:18.993Z,18.83
2019-01-31T02:37:59.335Z,20.87
2019-01-31T02:40:39.710Z,20.63
2019-01-31T02:43:11.247Z,18.27
2019-01-31T02:46:11.284Z,18.53
2019-01-31T02:48:48.573Z,19.03
2019-01-31T02:51:38.352Z,20.70
2019-01-31T02:54:12.709Z,22.17
2019-01-31T02:56:53.033Z,22.83
2019-01-31T02:59:41.044Z,23.07
2019-01-31T03:02:30.788Z,22.43
2019-01-31T03:05:02.326Z,22.23
2019-01-31T03:07:58.606Z,22.40
2019-01-31T03:10:32.601Z,22.80
2019-01-31T03:13:07.070Z,22.60
2019-01-31T03:15:47.165Z,20.07
2019-01-31T03:18:21.403Z,21.47
2019-01-31T03:21:11.028Z,21.77
2019-01-31T03:24:03.416Z,20.80
2019-01-31T03:26:37.427Z,21.43
2019-01-31T03:29:34.740Z,21.80
2019-01-31T03:32:09.159Z,20.30
2019-01-31T03:35:18.136Z,20.90
2019-01-31T03:38:05.849Z,21.53
2019-01-31T03:40:45.952Z,20.87
2019-01-31T03:43:17.483Z,20.67
2019-01-31T03:46:04.030Z,22.07
2019-01-31T03:48:41.505Z,20.70
2019-01-31T03:51:13.023Z,20.33
2019-01-31T03:54:01.014Z,21.80
2019-01-31T03:56:38.280Z,21.97
2019-01-31T03:59:18.641Z,21.70
2019-01-31T04:02:02.224Z,20.27
2019-01-31T04:04:36.722Z,21.40
2019-01-31T04:07:05.263Z,21.77
2019-01-31T04:09:33.749Z,22.23
2019-01-31T04:12:02.223Z,20.73
2019-01-31T04:14:30.713Z,21.83
2019-01-31T04:16:59.229Z,20.33
2019-01-31T04:19:27.672Z,21.10
2019-01-31T04:21:56.148Z,20.43
2019-01-31T04:24:24.634Z,21.50
2019-01-31T04:26:53.372Z,21.03
2019-01-31T04:29:21.872Z,22.37
2019-01-31T04:31:50.324Z,20.87
2019-01-31T04:34:18.891Z,19.90
2019-01-31T04:36:47.348Z,20.73
2019-01-31T04:39:15.833Z,19.67
2019-01-31T04:41:44.305Z,20.50
2019-01-31T04:44:12.796Z,20.63
2019-01-31T04:46:41.264Z,20.67
2019-01-31T04:49:09.762Z,19.37
2019-01-31T04:51:38.238Z,19.50
2019-01-31T04:54:06.789Z,19.73
2019-01-31T04:56:35.270Z,20.87
2019-01-31T04:59:03.775Z,19.13
2019-01-31T05:01:32.238Z,19.90
2019-01-31T05:04:00.740Z,18.07
2019-01-31T05:06:29.214Z,18.13
2019-01-31T05:08:57.707Z,17.83
2019-01-31T05:11:26.185Z,17.87
2019-01-31T05:13:54.681Z,18.23
2019-01-31T05:16:23.156Z,18.37
2019-01-31T05:18:51.641Z,18.27
2019-01-31T05:21:21.006Z,17.50
2019-01-31T05:23:49.567Z,18.77
2019-01-31T05:26:18.026Z,18.43
2019-01-31T05:28:46.529Z,17.37
2019-01-31T05:31:14.986Z,17.43
2019-01-31T05:33:43.510Z,17.37
2019-01-31T05:36:11.946Z,17.83
2019-01-31T05:38:40.434Z,18.67
2019-01-31T05:41:08.904Z,18.17
2019-01-31T05:43:37.382Z,17.20
2019-01-31T05:46:05.901Z,17.90
2019-01-31T05:48:34.350Z,17.97
2019-01-31T05:51:02.842Z,17.47
2019-01-31T05:53:31.305Z,16.43
2019-01-31T05:55:59.803Z,16.80
2019-01-31T05:58:28.278Z,17.53
2019-01-31T06:00:56.762Z,18.73
2019-01-31T06:03:25.241Z,18.83
2019-01-31T06:05:53.720Z,18.27
2019-01-31T06:08:22.197Z,18.93
2019-01-31T06:10:50.690Z,18.17
2019-01-31T06:13:19.157Z,18.27
2019-01-31T06:15:47.639Z,18.60
2019-01-31T06:18:16.119Z,18.33
2019-01-31T06:20:44.652Z,19.47
2019-01-31T06:23:13.115Z,19.70
2019-01-31T06:25:41.611Z,18.57
2019-01-31T06:28:12.913Z,18.30
2019-01-31T06:30:40.294Z,19.20
2019-01-31T06:33:08.762Z,18.90
2019-01-31T06:35:37.254Z,19.33
2019-01-31T06:38:05.723Z,18.37
2019-01-31T06:40:34.215Z,19.53
2019-01-31T06:43:02.686Z,18.10
2019-01-31T06:45:31.175Z,16.07
2019-01-31T06:47:59.659Z,17.17
2019-01-31T06:50:28.268Z,16.67
2019-01-31T06:52:58.233Z,15.00
2019-01-31T06:55:26.752Z,15.90
2019-01-31T06:57:55.217Z,14.80
2019-01-31T07:00:24.554Z,14.90
2019-01-31T07:02:53.100Z,14.80
2019-01-31T07:05:21.593Z,18.13
2019-01-31T07:07:50.073Z,18.67
2019-01-31T07:10:26.261Z,18.07
2019-01-31T07:12:54.791Z,17.43
2019-01-31T07:15:23.426Z,18.90
2019-01-31T07:17:51.878Z,19.27
2019-01-31T07:20:20.558Z,17.93
2019-01-31T07:22:49.033Z,14.67
2019-01-31T07:25:22.590Z,15.57
2019-01-31T07:27:51.057Z,18.40
2019-01-31T07:30:26.315Z,17.50
2019-01-31T07:32:53.655Z,17.57
2019-01-31T07:35:22.135Z,17.27
2019-01-31T07:37:52.971Z,18.30
2019-01-31T07:40:22.847Z,18.13
2019-01-31T07:42:51.390Z,16.50
2019-01-31T07:45:22.787Z,18.07
2019-01-31T07:47:51.662Z,18.60
2019-01-31T07:50:20.535Z,19.30
2019-01-31T07:52:49.082Z,18.27
2019-01-31T07:55:17.805Z,18.37
2019-01-31T07:57:46.286Z,17.93
2019-01-31T08:00:20.072Z,18.00
2019-01-31T08:02:48.573Z,18.13
2019-01-31T08:05:18.899Z,18.10
2019-01-31T08:07:48.843Z,17.10
2019-01-31T08:10:23.315Z,16.00
2019-01-31T08:12:51.757Z,18.10
2019-01-31T08:15:20.499Z,17.57
2019-01-31T08:17:48.970Z,16.30
2019-01-31T08:20:19.396Z,16.40
2019-01-31T08:22:47.861Z,17.37
2019-01-31T08:25:24.713Z,17.63
2019-01-31T08:27:54.129Z,16.57
2019-01-31T08:30:34.375Z,17.40
2019-01-31T08:33:02.920Z,16.43
2019-01-31T08:35:31.415Z,17.17
2019-01-31T08:37:59.915Z,17.07
2019-01-31T08:40:28.405Z,16.93
2019-01-31T08:42:56.875Z,17.50
2019-01-31T08:45:25.446Z,18.63
2019-01-31T08:47:53.913Z,18.00
2019-01-31T08:50:28.418Z,19.17
2019-01-31T08:52:56.919Z,17.93
2019-01-31T08:55:25.426Z,18.60
2019-01-31T08:57:53.911Z,16.33
2019-01-31T09:00:25.458Z,15.93
2019-01-31T09:02:54.012Z,16.53
2019-01-31T09:05:22.494Z,15.90
2019-01-31T09:07:51.114Z,16.60
2019-01-31T09:10:28.904Z,16.57
2019-01-31T09:12:58.416Z,17.27
2019-01-31T09:15:27.217Z,17.10
2019-01-31T09:17:57.922Z,17.27
2019-01-31T09:20:39.709Z,16.80
2019-01-31T09:23:20.406Z,15.67
2019-01-31T09:26:14.794Z,16.73
2019-01-31T09:29:04.616Z,14.93
2019-01-31T09:31:48.276Z,15.77
2019-01-31T09:34:34.714Z,15.40
2019-01-31T09:37:18.241Z,16.37
2019-01-31T09:39:55.581Z,16.00
2019-01-31T09:42:32.889Z,13.90
2019-01-31T09:45:07.136Z,14.43
2019-01-31T09:47:47.561Z,16.10
2019-01-31T09:50:43.187Z,14.13
2019-01-31T09:53:27.654Z,15.37
2019-01-31T09:56:15.827Z,14.77
2019-01-31T09:59:09.745Z,13.43
2019-01-31T10:02:05.208Z,14.53
2019-01-31T10:04:42.585Z,14.63
2019-01-31T10:07:20.266Z,13.70
2019-01-31T10:10:09.417Z,13.87
2019-01-31T10:12:46.678Z,11.33
2019-01-31T10:15:27.240Z,11.67
2019-01-31T10:18:05.069Z,9.47
2019-01-31T10:20:53.256Z,10.73
2019-01-31T10:23:31.055Z,9.70
2019-01-31T10:26:17.616Z,10.20
2019-01-31T10:28:51.830Z,10.00
2019-01-31T10:31:32.088Z,10.03
2019-01-31T10:34:15.264Z,9.13
2019-01-31T10:36:54.211Z,8.37
2019-01-31T10:39:35.668Z,8.50
2019-01-31T10:42:10.026Z,8.70
2019-01-31T10:44:50.716Z,7.87
2019-01-31T10:47:37.171Z,8.30
2019-01-31T10:50:40.544Z,8.27
2019-01-31T10:53:29.918Z,8.13
2019-01-31T10:56:22.100Z,8.00
2019-01-31T10:59:17.840Z,7.83
2019-01-31T11:02:07.449Z,7.07
2019-01-31T11:05:07.135Z,7.37
2019-01-31T11:08:04.664Z,8.43
2019-01-31T11:10:51.274Z,7.53
2019-01-31T11:13:46.961Z,7.87
2019-01-31T11:16:21.373Z,8.23
2019-01-31T11:19:12.492Z,8.53
2019-01-31T11:21:59.306Z,7.53
2019-01-31T11:24:42.728Z,6.73
2019-01-31T11:27:25.988Z,7.57
2019-01-31T11:30:30.883Z,6.17
2019-01-31T11:33:20.503Z,6.00
2019-01-31T11:36:03.949Z,7.50
2019-01-31T11:39:10.346Z,7.33
2019-01-31T11:41:57.080Z,7.70
2019-01-31T11:44:52.850Z,5.70
2019-01-31T11:47:45.093Z,7.37
2019-01-31T11:50:16.644Z,5.30
2019-01-31T11:52:56.744Z,4.77
2019-01-31T11:55:34.067Z,5.13
2019-01-31T11:58:11.423Z,5.20
2019-01-31T12:00:40.051Z,5.67
2019-01-31T12:03:08.752Z,5.80
2019-01-31T12:05:37.628Z,4.60
2019-01-31T12:08:06.419Z,5.63
2019-01-31T12:10:36.635Z,5.47
2019-01-31T12:13:05.538Z,5.57
2019-01-31T12:15:34.358Z,5.23
2019-01-31T12:18:05.909Z,5.40
2019-01-31T12:20:34.513Z,5.43
2019-01-31T12:23:03.034Z,4.57
2019-01-31T12:25:31.482Z,3.73
2019-01-31T12:27:59.969Z,5.20
2019-01-31T12:30:29.680Z,3.93
2019-01-31T12:32:58.255Z,4.23
2019-01-31T12:35:26.713Z,4.30
2019-01-31T12:37:55.196Z,5.10
2019-01-31T12:40:23.756Z,4.47
2019-01-31T12:42:52.384Z,4.53
2019-01-31T12:45:21.412Z,4.07
2019-01-31T12:47:50.077Z,4.00
2019-01-31T12:50:21.293Z,4.70
2019-01-31T12:52:50.040Z,5.10
2019-01-31T12:55:18.512Z,4.70
2019-01-31T12:57:47.073Z,4.70
2019-01-31T13:00:21.226Z,4.20
2019-01-31T13:02:49.698Z,4.67
2019-01-31T13:05:18.394Z,5.07
2019-01-31T13:07:47.292Z,5.03
2019-01-31T13:10:16.478Z,4.53
2019-01-31T13:12:48.921Z,4.77
2019-01-31T13:15:17.248Z,4.10
2019-01-31T13:17:45.884Z,4.70
2019-01-31T13:20:22.519Z,4.73
2019-01-31T13:22:56.130Z,4.37
2019-01-31T13:25:25.921Z,3.17
2019-01-31T13:27:54.555Z,3.70
2019-01-31T13:30:23.998Z,3.23
2019-01-31T13:32:54.619Z,2.57
2019-01-31T13:35:23.093Z,3.07
2019-01-31T13:37:51.679Z,4.83
2019-01-31T13:40:22.940Z,6.07
2019-01-31T13:42:51.969Z,6.10
2019-01-31T13:45:23.575Z,7.80
2019-01-31T13:47:52.384Z,7.73
2019-01-31T13:50:21.001Z,6.70
2019-01-31T13:52:49.549Z,7.83
2019-01-31T13:55:23.964Z,8.23
2019-01-31T13:57:52.454Z,8.33
2019-01-31T14:00:23.170Z,8.53
2019-01-31T14:02:52.961Z,6.90
2019-01-31T14:05:21.693Z,8.20
2019-01-31T14:07:50.208Z,7.97
2019-01-31T14:10:25.960Z,8.10
2019-01-31T14:12:54.507Z,8.10
2019-01-31T14:15:34.355Z,8.37
2019-01-31T14:18:03.027Z,8.93
2019-01-31T14:20:31.722Z,7.20
2019-01-31T14:23:00.200Z,8.23
2019-01-31T14:25:28.677Z,7.87
2019-01-31T14:27:57.234Z,7.70
2019-01-31T14:30:31.015Z,8.07
2019-01-31T14:33:00.232Z,7.40
2019-01-31T14:35:29.444Z,7.07
2019-01-31T14:37:57.991Z,8.50
2019-01-31T14:40:27.626Z,8.17
2019-01-31T14:42:56.229Z,6.73
2019-01-31T14:45:24.818Z,7.77
2019-01-31T14:47:55.745Z,9.00
2019-01-31T14:50:29.051Z,7.10
2019-01-31T14:52:57.538Z,7.37
2019-01-31T14:55:26.370Z,6.90
2019-01-31T14:57:55.163Z,6.80
2019-01-31T15:00:31.910Z,6.30
2019-01-31T15:03:00.372Z,8.30
2019-01-31T15:05:29.513Z,7.63
2019-01-31T15:07:58.001Z,7.87
2019-01-31T15:10:30.330Z,6.80
2019-01-31T15:12:59.011Z,7.43
2019-01-31T15:15:27.590Z,7.07
2019-01-31T15:17:56.321Z,6.90
2019-01-31T15:20:35.953Z,7.83
2019-01-31T15:22:57.237Z,7.73
2019-01-31T15:25:25.992Z,7.30
2019-01-31T15:27:54.600Z,8.07
2019-01-31T15:30:29.444Z,8.80
2019-01-31T15:32:58.540Z,8.57
2019-01-31T15:35:27.030Z,8.47
2019-01-31T15:37:56.653Z,9.43
2019-01-31T15:40:36.894Z,8.10
2019-01-31T15:43:06.499Z,9.20
2019-01-31T15:45:35.090Z,8.43
2019-01-31T15:48:03.606Z,10.07
2019-01-31T15:50:33.126Z,9.43
2019-01-31T15:53:03.152Z,9.90
2019-01-31T15:55:31.725Z,8.97
2019-01-31T15:58:00.192Z,9.80
2019-01-31T16:00:41.822Z,9.27
2019-01-31T16:03:12.530Z,8.83
2019-01-31T16:05:41.681Z,8.50
2019-01-31T16:08:10.871Z,8.63
2019-01-31T16:10:39.533Z,9.80
2019-01-31T16:13:08.355Z,8.53
2019-01-31T16:15:37.193Z,8.53
2019-01-31T16:18:07.606Z,7.90
2019-01-31T16:20:36.158Z,8.57
2019-01-31T16:23:05.113Z,7.67
2019-01-31T16:25:33.666Z,8.40
2019-01-31T16:28:02.127Z,7.90
2019-01-31T16:30:30.631Z,11.13
2019-01-31T16:32:59.105Z,7.13
2019-01-31T16:35:27.660Z,9.13
2019-01-31T16:37:56.122Z,7.80
2019-01-31T16:40:24.670Z,7.80
2019-01-31T16:42:53.405Z,8.53
2019-01-31T16:45:22.165Z,8.23
2019-01-31T16:47:50.646Z,7.50
2019-01-31T16:50:21.144Z,8.20
2019-01-31T16:52:49.689Z,9.17
2019-01-31T16:55:24.282Z,7.83
2019-01-31T16:57:53.382Z,8.67
2019-01-31T17:00:27.837Z,8.43
2019-01-31T17:02:56.469Z,9.00
2019-01-31T17:05:27.326Z,8.90
2019-01-31T17:07:55.938Z,9.43
2019-01-31T17:10:24.503Z,7.57
2019-01-31T17:12:53.043Z,7.67
2019-01-31T17:15:21.743Z,9.23
2019-01-31T17:17:50.291Z,9.13
2019-01-31T17:20:24.253Z,8.67
2019-01-31T17:22:52.703Z,9.13
2019-01-31T17:25:21.322Z,8.50
2019-01-31T17:27:49.786Z,10.47
2019-01-31T17:30:23.270Z,8.93
2019-01-31T17:32:51.986Z,9.30
2019-01-31T17:35:20.539Z,9.50
2019-01-31T17:37:49.018Z,9.50
2019-01-31T17:40:35.453Z,10.17
2019-01-31T17:43:04.393Z,10.03
2019-01-31T17:45:32.875Z,9.43
2019-01-31T17:48:01.357Z,11.47
2019-01-31T17:50:29.838Z,10.47
2019-01-31T17:52:58.387Z,10.47
2019-01-31T17:55:28.087Z,10.23
2019-01-31T17:57:56.636Z,10.67
2019-01-31T18:00:41.279Z,12.03
2019-01-31T18:03:09.743Z,10.87
2019-01-31T18:05:38.236Z,9.93
2019-01-31T18:08:09.183Z,11.13
2019-01-31T18:10:37.229Z,11.93
2019-01-31T18:13:05.842Z,11.93
2019-01-31T18:15:41.563Z,9.00
2019-01-31T18:18:05.069Z,11.17
2019-01-31T18:20:33.727Z,10.37
2019-01-31T18:23:02.191Z,10.47
2019-01-31T18:25:30.683Z,10.43
2019-01-31T18:27:59.155Z,11.20
2019-01-31T18:30:30.528Z,10.93
2019-01-31T18:32:59.345Z,13.80
2019-01-31T18:35:27.890Z,13.57
2019-01-31T18:37:56.386Z,13.57
2019-01-31T18:40:30.028Z,12.93
2019-01-31T18:42:58.518Z,12.90
2019-01-31T18:45:29.095Z,12.97
2019-01-31T18:47:57.769Z,12.30
2019-01-31T18:50:31.543Z,13.63
2019-01-31T18:53:00.046Z,13.53
2019-01-31T18:55:29.258Z,13.90
2019-01-31T18:57:57.767Z,13.30
2019-01-31T19:00:34.823Z,16.03
2019-01-31T19:03:03.447Z,15.60
2019-01-31T19:05:32.385Z,14.70
2019-01-31T19:08:00.879Z,14.83
2019-01-31T19:10:42.312Z,14.30
2019-01-31T19:12:59.651Z,16.37
2019-01-31T19:15:28.681Z,15.07
2019-01-31T19:18:05.551Z,16.33
2019-01-31T19:20:29.611Z,16.40
2019-01-31T19:23:00.058Z,16.57
2019-01-31T19:25:28.872Z,17.43
2019-01-31T19:27:57.503Z,15.40
2019-01-31T19:30:31.571Z,14.50
2019-01-31T19:33:00.121Z,14.23
2019-01-31T19:35:28.771Z,15.17
2019-01-31T19:38:01.931Z,14.80
2019-01-31T19:40:32.661Z,15.30
2019-01-31T19:43:01.219Z,15.93
2019-01-31T19:45:44.200Z,16.40
2019-01-31T19:48:13.016Z,16.97
2019-01-31T19:50:43.636Z,16.83
2019-01-31T19:53:11.836Z,16.60
2019-01-31T19:55:40.409Z,16.77
2019-01-31T19:58:08.959Z,16.50
2019-01-31T20:00:37.507Z,16.83
2019-01-31T20:03:07.228Z,16.60
2019-01-31T20:05:36.213Z,17.00
2019-01-31T20:08:06.138Z,15.67
2019-01-31T20:10:34.671Z,15.90
2019-01-31T20:13:03.162Z,17.13
2019-01-31T20:15:31.865Z,18.03
2019-01-31T20:18:00.418Z,17.53
2019-01-31T20:20:30.133Z,18.30
2019-01-31T20:22:59.887Z,18.53
2019-01-31T20:25:30.082Z,17.60
2019-01-31T20:27:58.623Z,17.70
2019-01-31T20:30:29.150Z,18.50
2019-01-31T20:32:58.689Z,18.30
2019-01-31T20:35:27.210Z,18.83
2019-01-31T20:37:55.691Z,19.40
2019-01-31T20:40:27.074Z,17.87
2019-01-31T20:42:55.880Z,20.73
2019-01-31T20:45:24.517Z,18.80
2019-01-31T20:47:52.994Z,18.73
2019-01-31T20:50:23.837Z,18.87
2019-01-31T20:52:53.316Z,19.73
2019-01-31T20:55:21.901Z,18.87
2019-01-31T20:57:50.360Z,21.73
2019-01-31T21:00:34.652Z,19.17
2019-01-31T21:03:04.362Z,20.03
2019-01-31T21:05:33.207Z,19.97
2019-01-31T21:08:01.681Z,22.03
2019-01-31T21:10:30.251Z,20.47
2019-01-31T21:12:58.840Z,20.30
2019-01-31T21:15:27.470Z,18.90
2019-01-31T21:17:56.006Z,21.90
2019-01-31T21:20:26.839Z,20.73
2019-01-31T21:22:55.968Z,19.37
2019-01-31T21:25:24.590Z,20.50
2019-01-31T21:27:54.097Z,20.73
2019-01-31T21:30:28.309Z,20.00
2019-01-31T21:32:56.782Z,21.03
2019-01-31T21:35:26.398Z,20.33
2019-01-31T21:37:54.914Z,21.00
2019-01-31T21:40:25.141Z,20.73
2019-01-31T21:42:54.284Z,21.97
2019-01-31T21:45:24.010Z,22.13
2019-01-31T21:47:52.462Z,21.63
2019-01-31T21:50:26.821Z,20.93
2019-01-31T21:52:55.278Z,23.30
2019-01-31T21:55:23.759Z,21.13
2019-01-31T21:57:52.223Z,22.73
2019-01-31T22:00:23.781Z,22.67
2019-01-31T22:02:52.258Z,23.53
2019-01-31T22:05:20.881Z,21.83
2019-01-31T22:07:49.370Z,22.43
2019-01-31T22:10:20.495Z,23.27
2019-01-31T22:12:49.003Z,22.57
2019-01-31T22:15:19.825Z,23.60
2019-01-31T22:17:48.360Z,22.33
2019-01-31T22:20:16.850Z,22.77
2019-01-31T22:22:45.430Z,23.43
2019-01-31T22:25:19.111Z,24.37
2019-01-31T22:27:47.586Z,26.47
2019-01-31T22:30:18.857Z,22.97
2019-01-31T22:32:47.418Z,25.00
2019-01-31T22:35:16.274Z,22.93
2019-01-31T22:37:44.793Z,23.93
2019-01-31T22:40:15.544Z,24.40
2019-01-31T22:42:44.092Z,25.90
2019-01-31T22:45:15.324Z,24.37
2019-01-31T22:47:43.771Z,24.90
2019-01-31T22:50:18.118Z,25.73
2019-01-31T22:52:46.659Z,25.97
2019-01-31T22:55:18.019Z,26.17
2019-01-31T22:57:46.557Z,23.70
2019-01-31T23:00:24.147Z,24.53
2019-01-31T23:02:52.619Z,31.33
2019-01-31T23:05:21.115Z,28.03
2019-01-31T23:07:51.643Z,27.30
2019-01-31T23:10:19.766Z,26.33
2019-01-31T23:12:48.264Z,24.67
2019-01-31T23:15:16.744Z,27.13
2019-01-31T23:17:45.253Z,25.87
2019-01-31T23:20:15.164Z,28.17
2019-01-31T23:22:43.644Z,26.73
2019-01-31T23:25:12.288Z,26.93
2019-01-31T23:27:40.771Z,27.13
2019-01-31T23:30:12.293Z,27.90
2019-01-31T23:32:40.803Z,26.73
2019-01-31T23:35:10.018Z,28.43
2019-01-31T23:37:38.538Z,26.73
2019-01-31T23:40:09.931Z,26.63
2019-01-31T23:42:38.494Z,26.40
2019-01-31T23:45:14.903Z,27.87
2019-01-31T23:47:49.001Z,30.03
2019-01-31T23:50:13.910Z,27.73
2019-01-31T23:52:42.525Z,29.10
2019-01-31T23:55:16.191Z,28.47
2019-01-31T23:57:44.703Z,27.47
